sensor_id;sensor_type;location;lat;lon;timestamp;P1;durP1;ratioP1;P2;durP2;ratioP2
45620;SDS011;31345;51.522;10.702;2023-08-24T00:02:06;6.95;;;4.35;;
45620;SDS011;31345;51.522;10.702;2023-08-24T00:04:38;7.93;;;5.10;;
45620;SDS011;31345;51.522;10.702;2023-08-24T00:07:12;8.02;;;4.57;;
45620;SDS011;31345;51.522;10.702;2023-08-24T00:09:45;6.35;;;4.40;;
45620;SDS011;31345;51.522;10.702;2023-08-24T00:12:17;8.98;;;4.45;;
45620;SDS011;31345;51.522;10.702;2023-08-24T00:14:50;8.20;;;5.07;;
45620;SDS011;31345;51.522;10.702;2023-08-24T00:17:23;11.23;;;5.10;;
45620;SDS011;31345;51.522;10.702;2023-08-24T00:19:56;7.25;;;5.13;;
45620;SDS011;31345;51.522;10.702;2023-08-24T00:22:30;5.65;;;4.20;;
45620;SDS011;31345;51.522;10.702;2023-08-24T00:25:03;10.07;;;5.07;;
45620;SDS011;31345;51.522;10.702;2023-08-24T00:27:37;8.07;;;4.65;;
45620;SDS011;31345;51.522;10.702;2023-08-24T00:30:10;6.88;;;4.88;;
45620;SDS011;31345;51.522;10.702;2023-08-24T00:32:38;6.93;;;4.97;;
45620;SDS011;31345;51.522;10.702;2023-08-24T00:35:10;8.52;;;4.43;;
45620;SDS011;31345;51.522;10.702;2023-08-24T00:37:44;9.32;;;4.97;;
45620;SDS011;31345;51.522;10.702;2023-08-24T00:40:17;8.43;;;4.78;;
45620;SDS011;31345;51.522;10.702;2023-08-24T00:42:49;8.32;;;4.75;;
45620;SDS011;31345;51.522;10.702;2023-08-24T00:45:22;9.15;;;4.82;;
45620;SDS011;31345;51.522;10.702;2023-08-24T00:47:55;10.80;;;4.55;;
45620;SDS011;31345;51.522;10.702;2023-08-24T00:50:27;9.50;;;4.90;;
45620;SDS011;31345;51.522;10.702;2023-08-24T00:53:01;7.25;;;4.88;;
45620;SDS011;31345;51.522;10.702;2023-08-24T00:55:35;6.22;;;5.13;;
45620;SDS011;31345;51.522;10.702;2023-08-24T00:58:07;8.02;;;4.93;;
45620;SDS011;31345;51.522;10.702;2023-08-24T01:00:41;7.72;;;4.97;;
45620;SDS011;31345;51.522;10.702;2023-08-24T01:03:16;9.02;;;4.88;;
45620;SDS011;31345;51.522;10.702;2023-08-24T01:05:48;7.75;;;5.18;;
45620;SDS011;31345;51.522;10.702;2023-08-24T01:08:23;11.27;;;5.63;;
45620;SDS011;31345;51.522;10.702;2023-08-24T01:10:58;10.43;;;5.20;;
45620;SDS011;31345;51.522;10.702;2023-08-24T01:13:36;8.77;;;5.20;;
45620;SDS011;31345;51.522;10.702;2023-08-24T01:16:18;9.55;;;5.22;;
45620;SDS011;31345;51.522;10.702;2023-08-24T01:18:53;10.30;;;5.25;;
45620;SDS011;31345;51.522;10.702;2023-08-24T01:21:27;10.27;;;5.70;;
45620;SDS011;31345;51.522;10.702;2023-08-24T01:24:04;10.27;;;5.15;;
45620;SDS011;31345;51.522;10.702;2023-08-24T01:26:46;9.63;;;5.93;;
45620;SDS011;31345;51.522;10.702;2023-08-24T01:29:21;7.85;;;5.00;;
45620;SDS011;31345;51.522;10.702;2023-08-24T01:31:54;10.45;;;6.15;;
45620;SDS011;31345;51.522;10.702;2023-08-24T01:34:27;7.55;;;5.20;;
45620;SDS011;31345;51.522;10.702;2023-08-24T01:37:00;10.70;;;5.18;;
45620;SDS011;31345;51.522;10.702;2023-08-24T01:39:35;7.03;;;5.25;;
45620;SDS011;31345;51.522;10.702;2023-08-24T01:42:18;7.55;;;5.38;;
45620;SDS011;31345;51.522;10.702;2023-08-24T01:44:54;9.43;;;5.88;;
45620;SDS011;31345;51.522;10.702;2023-08-24T01:47:32;6.90;;;5.10;;
45620;SDS011;31345;51.522;10.702;2023-08-24T01:50:06;9.48;;;5.60;;
45620;SDS011;31345;51.522;10.702;2023-08-24T01:52:39;8.25;;;5.45;;
45620;SDS011;31345;51.522;10.702;2023-08-24T01:55:12;6.63;;;5.60;;
45620;SDS011;31345;51.522;10.702;2023-08-24T01:57:47;7.30;;;5.55;;
45620;SDS011;31345;51.522;10.702;2023-08-24T02:00:16;11.15;;;6.10;;
45620;SDS011;31345;51.522;10.702;2023-08-24T02:02:51;8.93;;;5.63;;
45620;SDS011;31345;51.522;10.702;2023-08-24T02:05:19;7.85;;;5.60;;
45620;SDS011;31345;51.522;10.702;2023-08-24T02:07:56;9.88;;;5.82;;
45620;SDS011;31345;51.522;10.702;2023-08-24T02:10:30;8.15;;;5.45;;
45620;SDS011;31345;51.522;10.702;2023-08-24T02:13:04;6.75;;;5.32;;
45620;SDS011;31345;51.522;10.702;2023-08-24T02:15:37;9.10;;;5.32;;
45620;SDS011;31345;51.522;10.702;2023-08-24T02:18:10;10.77;;;5.50;;
45620;SDS011;31345;51.522;10.702;2023-08-24T02:20:43;6.65;;;5.25;;
45620;SDS011;31345;51.522;10.702;2023-08-24T02:23:16;9.15;;;5.80;;
45620;SDS011;31345;51.522;10.702;2023-08-24T02:25:48;13.10;;;5.93;;
45620;SDS011;31345;51.522;10.702;2023-08-24T02:28:22;8.85;;;6.15;;
45620;SDS011;31345;51.522;10.702;2023-08-24T02:30:59;8.38;;;5.95;;
45620;SDS011;31345;51.522;10.702;2023-08-24T02:33:32;8.23;;;5.95;;
45620;SDS011;31345;51.522;10.702;2023-08-24T02:36:05;11.13;;;5.57;;
45620;SDS011;31345;51.522;10.702;2023-08-24T02:38:38;8.52;;;5.75;;
45620;SDS011;31345;51.522;10.702;2023-08-24T02:41:06;10.93;;;5.63;;
45620;SDS011;31345;51.522;10.702;2023-08-24T02:43:43;8.52;;;5.70;;
45620;SDS011;31345;51.522;10.702;2023-08-24T02:46:15;8.57;;;5.65;;
45620;SDS011;31345;51.522;10.702;2023-08-24T02:48:49;10.45;;;6.18;;
45620;SDS011;31345;51.522;10.702;2023-08-24T02:51:23;9.23;;;6.95;;
45620;SDS011;31345;51.522;10.702;2023-08-24T02:53:56;10.35;;;6.88;;
45620;SDS011;31345;51.522;10.702;2023-08-24T02:56:29;8.85;;;6.22;;
45620;SDS011;31345;51.522;10.702;2023-08-24T02:59:02;8.75;;;7.03;;
45620;SDS011;31345;51.522;10.702;2023-08-24T03:01:30;9.15;;;6.40;;
45620;SDS011;31345;51.522;10.702;2023-08-24T03:04:03;12.18;;;7.10;;
45620;SDS011;31345;51.522;10.702;2023-08-24T03:06:36;9.75;;;6.93;;
45620;SDS011;31345;51.522;10.702;2023-08-24T03:09:08;11.13;;;6.85;;
45620;SDS011;31345;51.522;10.702;2023-08-24T03:11:41;10.23;;;7.07;;
45620;SDS011;31345;51.522;10.702;2023-08-24T03:14:12;14.98;;;6.47;;
45620;SDS011;31345;51.522;10.702;2023-08-24T03:16:45;11.27;;;7.00;;
45620;SDS011;31345;51.522;10.702;2023-08-24T03:19:12;9.25;;;6.93;;
45620;SDS011;31345;51.522;10.702;2023-08-24T03:21:45;11.85;;;7.18;;
45620;SDS011;31345;51.522;10.702;2023-08-24T03:24:18;9.50;;;6.88;;
45620;SDS011;31345;51.522;10.702;2023-08-24T03:26:50;8.30;;;6.95;;
45620;SDS011;31345;51.522;10.702;2023-08-24T03:29:26;8.40;;;6.65;;
45620;SDS011;31345;51.522;10.702;2023-08-24T03:31:59;8.90;;;6.57;;
45620;SDS011;31345;51.522;10.702;2023-08-24T03:34:31;10.07;;;6.60;;
45620;SDS011;31345;51.522;10.702;2023-08-24T03:37:04;9.40;;;7.00;;
45620;SDS011;31345;51.522;10.702;2023-08-24T03:39:38;10.50;;;7.03;;
45620;SDS011;31345;51.522;10.702;2023-08-24T03:42:11;9.75;;;6.35;;
45620;SDS011;31345;51.522;10.702;2023-08-24T03:44:45;8.77;;;6.97;;
45620;SDS011;31345;51.522;10.702;2023-08-24T03:47:12;9.90;;;6.85;;
45620;SDS011;31345;51.522;10.702;2023-08-24T03:49:45;10.60;;;7.03;;
45620;SDS011;31345;51.522;10.702;2023-08-24T03:52:17;15.77;;;7.15;;
45620;SDS011;31345;51.522;10.702;2023-08-24T03:54:50;9.70;;;6.82;;
45620;SDS011;31345;51.522;10.702;2023-08-24T03:57:23;9.95;;;6.88;;
45620;SDS011;31345;51.522;10.702;2023-08-24T03:59:57;11.75;;;6.82;;
45620;SDS011;31345;51.522;10.702;2023-08-24T04:02:29;8.35;;;6.07;;
45620;SDS011;31345;51.522;10.702;2023-08-24T04:05:02;10.80;;;6.43;;
45620;SDS011;31345;51.522;10.702;2023-08-24T04:07:35;9.43;;;6.47;;
45620;SDS011;31345;51.522;10.702;2023-08-24T04:10:09;10.48;;;6.60;;
45620;SDS011;31345;51.522;10.702;2023-08-24T04:12:43;9.15;;;6.20;;
45620;SDS011;31345;51.522;10.702;2023-08-24T04:15:12;9.02;;;6.70;;
45620;SDS011;31345;51.522;10.702;2023-08-24T04:17:45;9.18;;;6.72;;
45620;SDS011;31345;51.522;10.702;2023-08-24T04:20:17;11.50;;;6.22;;
45620;SDS011;31345;51.522;10.702;2023-08-24T04:22:50;8.45;;;5.80;;
45620;SDS011;31345;51.522;10.702;2023-08-24T04:25:23;10.20;;;6.45;;
45620;SDS011;31345;51.522;10.702;2023-08-24T04:27:55;8.27;;;5.85;;
45620;SDS011;31345;51.522;10.702;2023-08-24T04:30:29;11.60;;;6.68;;
45620;SDS011;31345;51.522;10.702;2023-08-24T04:33:02;8.98;;;5.68;;
45620;SDS011;31345;51.522;10.702;2023-08-24T04:35:35;8.68;;;5.85;;
45620;SDS011;31345;51.522;10.702;2023-08-24T04:38:08;15.85;;;6.28;;
45620;SDS011;31345;51.522;10.702;2023-08-24T04:40:48;8.93;;;6.00;;
45620;SDS011;31345;51.522;10.702;2023-08-24T04:43:22;11.35;;;6.60;;
45620;SDS011;31345;51.522;10.702;2023-08-24T04:45:57;7.70;;;5.93;;
45620;SDS011;31345;51.522;10.702;2023-08-24T04:48:30;13.95;;;6.50;;
45620;SDS011;31345;51.522;10.702;2023-08-24T04:51:05;8.93;;;5.93;;
45620;SDS011;31345;51.522;10.702;2023-08-24T04:53:37;8.27;;;5.93;;
45620;SDS011;31345;51.522;10.702;2023-08-24T04:56:10;8.60;;;6.40;;
45620;SDS011;31345;51.522;10.702;2023-08-24T04:58:38;11.23;;;6.10;;
45620;SDS011;31345;51.522;10.702;2023-08-24T05:01:11;8.95;;;6.05;;
45620;SDS011;31345;51.522;10.702;2023-08-24T05:03:45;9.40;;;5.80;;
45620;SDS011;31345;51.522;10.702;2023-08-24T05:06:13;8.30;;;6.45;;
45620;SDS011;31345;51.522;10.702;2023-08-24T05:08:45;11.27;;;5.90;;
45620;SDS011;31345;51.522;10.702;2023-08-24T05:11:18;12.65;;;6.55;;
45620;SDS011;31345;51.522;10.702;2023-08-24T05:13:52;8.13;;;5.40;;
45620;SDS011;31345;51.522;10.702;2023-08-24T05:16:26;13.93;;;6.32;;
45620;SDS011;31345;51.522;10.702;2023-08-24T05:18:59;7.82;;;6.03;;
45620;SDS011;31345;51.522;10.702;2023-08-24T05:21:34;10.90;;;5.88;;
45620;SDS011;31345;51.522;10.702;2023-08-24T05:24:06;10.68;;;5.65;;
45620;SDS011;31345;51.522;10.702;2023-08-24T05:26:34;8.85;;;5.60;;
45620;SDS011;31345;51.522;10.702;2023-08-24T05:29:06;10.63;;;6.93;;
45620;SDS011;31345;51.522;10.702;2023-08-24T05:31:35;8.52;;;6.20;;
45620;SDS011;31345;51.522;10.702;2023-08-24T05:34:08;13.10;;;5.88;;
45620;SDS011;31345;51.522;10.702;2023-08-24T05:36:40;6.72;;;4.93;;
45620;SDS011;31345;51.522;10.702;2023-08-24T05:39:13;7.93;;;5.53;;
45620;SDS011;31345;51.522;10.702;2023-08-24T05:41:46;8.10;;;5.43;;
45620;SDS011;31345;51.522;10.702;2023-08-24T05:44:22;10.18;;;6.35;;
45620;SDS011;31345;51.522;10.702;2023-08-24T05:46:56;9.18;;;6.13;;
45620;SDS011;31345;51.522;10.702;2023-08-24T05:49:29;9.73;;;6.75;;
45620;SDS011;31345;51.522;10.702;2023-08-24T05:52:02;8.02;;;5.78;;
45620;SDS011;31345;51.522;10.702;2023-08-24T05:54:35;12.82;;;6.40;;
45620;SDS011;31345;51.522;10.702;2023-08-24T05:57:08;10.85;;;6.20;;
45620;SDS011;31345;51.522;10.702;2023-08-24T05:59:41;8.98;;;6.57;;
45620;SDS011;31345;51.522;10.702;2023-08-24T06:02:15;11.77;;;7.28;;
45620;SDS011;31345;51.522;10.702;2023-08-24T06:04:47;9.90;;;7.32;;
45620;SDS011;31345;51.522;10.702;2023-08-24T06:07:16;15.18;;;8.38;;
45620;SDS011;31345;51.522;10.702;2023-08-24T06:09:44;11.25;;;7.97;;
45620;SDS011;31345;51.522;10.702;2023-08-24T06:12:16;12.20;;;8.60;;
45620;SDS011;31345;51.522;10.702;2023-08-24T06:14:49;11.98;;;7.90;;
45620;SDS011;31345;51.522;10.702;2023-08-24T06:17:23;12.02;;;7.95;;
45620;SDS011;31345;51.522;10.702;2023-08-24T06:19:51;14.30;;;7.85;;
45620;SDS011;31345;51.522;10.702;2023-08-24T06:22:23;9.95;;;6.80;;
45620;SDS011;31345;51.522;10.702;2023-08-24T06:24:56;12.40;;;7.03;;
45620;SDS011;31345;51.522;10.702;2023-08-24T06:27:30;10.57;;;6.80;;
45620;SDS011;31345;51.522;10.702;2023-08-24T06:30:04;12.10;;;7.20;;
45620;SDS011;31345;51.522;10.702;2023-08-24T06:32:39;10.93;;;7.20;;
45620;SDS011;31345;51.522;10.702;2023-08-24T06:35:12;10.85;;;7.03;;
45620;SDS011;31345;51.522;10.702;2023-08-24T06:37:46;11.23;;;7.05;;
45620;SDS011;31345;51.522;10.702;2023-08-24T06:40:14;11.82;;;6.65;;
45620;SDS011;31345;51.522;10.702;2023-08-24T06:42:44;8.32;;;5.85;;
45620;SDS011;31345;51.522;10.702;2023-08-24T06:45:16;9.02;;;6.80;;
45620;SDS011;31345;51.522;10.702;2023-08-24T06:47:51;11.13;;;6.82;;
45620;SDS011;31345;51.522;10.702;2023-08-24T06:50:24;8.35;;;6.22;;
45620;SDS011;31345;51.522;10.702;2023-08-24T06:52:57;10.70;;;7.32;;
45620;SDS011;31345;51.522;10.702;2023-08-24T06:55:30;10.50;;;6.90;;
45620;SDS011;31345;51.522;10.702;2023-08-24T06:58:03;12.57;;;6.43;;
45620;SDS011;31345;51.522;10.702;2023-08-24T07:00:36;10.10;;;6.65;;
45620;SDS011;31345;51.522;10.702;2023-08-24T07:03:10;11.82;;;6.00;;
45620;SDS011;31345;51.522;10.702;2023-08-24T07:05:43;12.15;;;7.15;;
45620;SDS011;31345;51.522;10.702;2023-08-24T07:08:15;12.82;;;6.93;;
45620;SDS011;31345;51.522;10.702;2023-08-24T07:10:48;10.15;;;6.43;;
45620;SDS011;31345;51.522;10.702;2023-08-24T07:13:20;10.88;;;6.93;;
45620;SDS011;31345;51.522;10.702;2023-08-24T07:15:53;10.50;;;6.63;;
45620;SDS011;31345;51.522;10.702;2023-08-24T07:18:27;11.35;;;6.90;;
45620;SDS011;31345;51.522;10.702;2023-08-24T07:21:00;10.18;;;6.13;;
45620;SDS011;31345;51.522;10.702;2023-08-24T07:23:27;8.55;;;6.05;;
45620;SDS011;31345;51.522;10.702;2023-08-24T07:26:00;9.15;;;6.07;;
45620;SDS011;31345;51.522;10.702;2023-08-24T07:28:33;9.73;;;6.10;;
45620;SDS011;31345;51.522;10.702;2023-08-24T07:31:08;11.45;;;6.00;;
45620;SDS011;31345;51.522;10.702;2023-08-24T07:33:43;11.00;;;6.60;;
45620;SDS011;31345;51.522;10.702;2023-08-24T07:36:16;9.38;;;6.05;;
45620;SDS011;31345;51.522;10.702;2023-08-24T07:38:49;8.13;;;5.88;;
45620;SDS011;31345;51.522;10.702;2023-08-24T07:41:22;11.23;;;6.45;;
45620;SDS011;31345;51.522;10.702;2023-08-24T07:43:55;7.50;;;5.95;;
45620;SDS011;31345;51.522;10.702;2023-08-24T07:46:28;12.02;;;6.15;;
45620;SDS011;31345;51.522;10.702;2023-08-24T07:49:02;9.88;;;6.70;;
45620;SDS011;31345;51.522;10.702;2023-08-24T07:51:35;11.38;;;6.15;;
45620;SDS011;31345;51.522;10.702;2023-08-24T07:54:08;7.88;;;5.32;;
45620;SDS011;31345;51.522;10.702;2023-08-24T07:56:35;10.25;;;6.38;;
45620;SDS011;31345;51.522;10.702;2023-08-24T07:59:08;11.63;;;6.30;;
45620;SDS011;31345;51.522;10.702;2023-08-24T08:01:41;10.93;;;5.65;;
45620;SDS011;31345;51.522;10.702;2023-08-24T08:04:15;10.45;;;5.93;;
45620;SDS011;31345;51.522;10.702;2023-08-24T08:06:47;8.13;;;5.70;;
45620;SDS011;31345;51.522;10.702;2023-08-24T08:09:20;8.00;;;5.57;;
45620;SDS011;31345;51.522;10.702;2023-08-24T08:11:55;10.15;;;5.43;;
45620;SDS011;31345;51.522;10.702;2023-08-24T08:14:28;8.25;;;5.60;;
45620;SDS011;31345;51.522;10.702;2023-08-24T08:17:01;9.77;;;5.63;;
45620;SDS011;31345;51.522;10.702;2023-08-24T08:19:30;10.18;;;5.85;;
45620;SDS011;31345;51.522;10.702;2023-08-24T08:22:02;8.70;;;5.45;;
45620;SDS011;31345;51.522;10.702;2023-08-24T08:24:35;6.50;;;4.80;;
45620;SDS011;31345;51.522;10.702;2023-08-24T08:27:08;9.85;;;5.78;;
45620;SDS011;31345;51.522;10.702;2023-08-24T08:29:41;9.20;;;5.20;;
45620;SDS011;31345;51.522;10.702;2023-08-24T08:32:14;10.50;;;5.15;;
45620;SDS011;31345;51.522;10.702;2023-08-24T08:34:43;11.23;;;6.03;;
45620;SDS011;31345;51.522;10.702;2023-08-24T08:37:15;8.32;;;5.20;;
45620;SDS011;31345;51.522;10.702;2023-08-24T08:39:48;8.18;;;4.88;;
45620;SDS011;31345;51.522;10.702;2023-08-24T08:42:21;6.25;;;4.93;;
45620;SDS011;31345;51.522;10.702;2023-08-24T08:44:53;8.40;;;4.68;;
45620;SDS011;31345;51.522;10.702;2023-08-24T08:47:26;9.23;;;5.07;;
45620;SDS011;31345;51.522;10.702;2023-08-24T08:50:00;10.15;;;4.82;;
45620;SDS011;31345;51.522;10.702;2023-08-24T08:52:34;11.07;;;4.38;;
45620;SDS011;31345;51.522;10.702;2023-08-24T08:55:07;6.50;;;4.45;;
45620;SDS011;31345;51.522;10.702;2023-08-24T08:57:42;6.72;;;3.80;;
45620;SDS011;31345;51.522;10.702;2023-08-24T09:00:15;6.75;;;3.80;;
45620;SDS011;31345;51.522;10.702;2023-08-24T09:02:44;8.85;;;4.70;;
45620;SDS011;31345;51.522;10.702;2023-08-24T09:05:19;7.78;;;3.83;;
45620;SDS011;31345;51.522;10.702;2023-08-24T09:07:52;10.93;;;4.30;;
45620;SDS011;31345;51.522;10.702;2023-08-24T09:10:27;8.32;;;4.30;;
45620;SDS011;31345;51.522;10.702;2023-08-24T09:12:59;9.85;;;4.22;;
45620;SDS011;31345;51.522;10.702;2023-08-24T09:15:27;7.22;;;4.28;;
45620;SDS011;31345;51.522;10.702;2023-08-24T09:18:00;5.35;;;3.85;;
45620;SDS011;31345;51.522;10.702;2023-08-24T09:20:34;5.95;;;3.58;;
45620;SDS011;31345;51.522;10.702;2023-08-24T09:23:14;6.03;;;3.92;;
45620;SDS011;31345;51.522;10.702;2023-08-24T09:25:50;8.15;;;4.10;;
45620;SDS011;31345;51.522;10.702;2023-08-24T09:28:22;9.02;;;4.10;;
45620;SDS011;31345;51.522;10.702;2023-08-24T09:31:00;8.27;;;4.40;;
45620;SDS011;31345;51.522;10.702;2023-08-24T09:33:33;11.70;;;5.47;;
45620;SDS011;31345;51.522;10.702;2023-08-24T09:36:09;10.98;;;5.07;;
45620;SDS011;31345;51.522;10.702;2023-08-24T09:38:45;9.02;;;4.68;;
45620;SDS011;31345;51.522;10.702;2023-08-24T09:41:19;6.93;;;4.93;;
45620;SDS011;31345;51.522;10.702;2023-08-24T09:43:52;10.18;;;4.70;;
45620;SDS011;31345;51.522;10.702;2023-08-24T09:46:25;8.88;;;4.70;;
45620;SDS011;31345;51.522;10.702;2023-08-24T09:48:57;10.93;;;4.68;;
45620;SDS011;31345;51.522;10.702;2023-08-24T09:51:33;9.10;;;4.72;;
45620;SDS011;31345;51.522;10.702;2023-08-24T09:54:08;12.02;;;5.10;;
45620;SDS011;31345;51.522;10.702;2023-08-24T09:56:41;12.07;;;4.90;;
45620;SDS011;31345;51.522;10.702;2023-08-24T09:59:16;9.35;;;3.95;;
45620;SDS011;31345;51.522;10.702;2023-08-24T10:01:49;6.75;;;4.05;;
45620;SDS011;31345;51.522;10.702;2023-08-24T10:04:29;5.10;;;4.00;;
45620;SDS011;31345;51.522;10.702;2023-08-24T10:07:07;8.70;;;3.78;;
45620;SDS011;31345;51.522;10.702;2023-08-24T10:09:45;7.97;;;3.80;;
45620;SDS011;31345;51.522;10.702;2023-08-24T10:12:27;5.15;;;3.85;;
45620;SDS011;31345;51.522;10.702;2023-08-24T10:15:01;12.50;;;4.35;;
45620;SDS011;31345;51.522;10.702;2023-08-24T10:17:34;7.22;;;3.95;;
45620;SDS011;31345;51.522;10.702;2023-08-24T10:20:08;9.73;;;4.88;;
45620;SDS011;31345;51.522;10.702;2023-08-24T10:22:45;9.60;;;4.15;;
45620;SDS011;31345;51.522;10.702;2023-08-24T10:25:20;5.88;;;4.25;;
45620;SDS011;31345;51.522;10.702;2023-08-24T10:27:55;9.18;;;4.28;;
45620;SDS011;31345;51.522;10.702;2023-08-24T10:30:25;6.68;;;4.13;;
45620;SDS011;31345;51.522;10.702;2023-08-24T10:33:02;7.05;;;4.00;;
45620;SDS011;31345;51.522;10.702;2023-08-24T10:35:34;6.03;;;3.83;;
45620;SDS011;31345;51.522;10.702;2023-08-24T10:38:09;7.25;;;3.75;;
45620;SDS011;31345;51.522;10.702;2023-08-24T10:41:01;5.40;;;3.75;;
45620;SDS011;31345;51.522;10.702;2023-08-24T10:43:35;9.45;;;3.67;;
45620;SDS011;31345;51.522;10.702;2023-08-24T10:46:03;7.63;;;4.53;;
45620;SDS011;31345;51.522;10.702;2023-08-24T10:51:24;7.93;;;4.53;;
45620;SDS011;31345;51.522;10.702;2023-08-24T10:54:00;6.70;;;4.03;;
45620;SDS011;31345;51.522;10.702;2023-08-24T10:56:35;6.72;;;4.10;;
45620;SDS011;31345;51.522;10.702;2023-08-24T10:59:09;8.70;;;3.75;;
45620;SDS011;31345;51.522;10.702;2023-08-24T11:01:54;7.78;;;4.00;;
45620;SDS011;31345;51.522;10.702;2023-08-24T11:04:27;6.47;;;4.35;;
45620;SDS011;31345;51.522;10.702;2023-08-24T11:07:00;11.27;;;4.55;;
45620;SDS011;31345;51.522;10.702;2023-08-24T11:09:47;5.53;;;3.55;;
45620;SDS011;31345;51.522;10.702;2023-08-24T11:12:20;9.77;;;4.07;;
45620;SDS011;31345;51.522;10.702;2023-08-24T11:14:52;11.80;;;4.35;;
45620;SDS011;31345;51.522;10.702;2023-08-24T11:17:29;6.97;;;4.50;;
45620;SDS011;31345;51.522;10.702;2023-08-24T11:20:03;6.55;;;3.55;;
45620;SDS011;31345;51.522;10.702;2023-08-24T11:22:37;7.95;;;4.00;;
45620;SDS011;31345;51.522;10.702;2023-08-24T11:25:12;6.38;;;3.70;;
45620;SDS011;31345;51.522;10.702;2023-08-24T11:27:45;6.88;;;4.20;;
45620;SDS011;31345;51.522;10.702;2023-08-24T11:30:18;5.95;;;3.60;;
45620;SDS011;31345;51.522;10.702;2023-08-24T11:32:51;10.10;;;3.80;;
45620;SDS011;31345;51.522;10.702;2023-08-24T11:35:25;7.60;;;4.30;;
45620;SDS011;31345;51.522;10.702;2023-08-24T11:37:57;11.80;;;3.85;;
45620;SDS011;31345;51.522;10.702;2023-08-24T11:40:31;9.25;;;4.20;;
45620;SDS011;31345;51.522;10.702;2023-08-24T11:43:04;8.93;;;4.10;;
45620;SDS011;31345;51.522;10.702;2023-08-24T11:45:32;6.00;;;3.88;;
45620;SDS011;31345;51.522;10.702;2023-08-24T11:48:07;8.20;;;3.95;;
45620;SDS011;31345;51.522;10.702;2023-08-24T11:50:40;8.82;;;4.53;;
45620;SDS011;31345;51.522;10.702;2023-08-24T11:53:13;7.82;;;3.97;;
45620;SDS011;31345;51.522;10.702;2023-08-24T11:55:47;6.70;;;3.90;;
45620;SDS011;31345;51.522;10.702;2023-08-24T11:58:20;7.63;;;3.70;;
45620;SDS011;31345;51.522;10.702;2023-08-24T12:00:52;6.53;;;3.83;;
45620;SDS011;31345;51.522;10.702;2023-08-24T12:03:25;7.50;;;4.40;;
45620;SDS011;31345;51.522;10.702;2023-08-24T12:05:58;7.60;;;3.90;;
45620;SDS011;31345;51.522;10.702;2023-08-24T12:08:36;6.53;;;3.42;;
45620;SDS011;31345;51.522;10.702;2023-08-24T12:11:12;4.60;;;3.40;;
45620;SDS011;31345;51.522;10.702;2023-08-24T12:13:46;7.90;;;3.65;;
45620;SDS011;31345;51.522;10.702;2023-08-24T12:16:17;8.57;;;3.72;;
45620;SDS011;31345;51.522;10.702;2023-08-24T12:18:53;6.60;;;3.67;;
45620;SDS011;31345;51.522;10.702;2023-08-24T12:21:27;4.85;;;3.40;;
45620;SDS011;31345;51.522;10.702;2023-08-24T12:23:55;6.70;;;3.45;;
45620;SDS011;31345;51.522;10.702;2023-08-24T12:26:26;6.38;;;3.75;;
45620;SDS011;31345;51.522;10.702;2023-08-24T12:28:58;6.50;;;3.83;;
45620;SDS011;31345;51.522;10.702;2023-08-24T12:31:34;6.57;;;3.50;;
45620;SDS011;31345;51.522;10.702;2023-08-24T12:34:07;7.88;;;3.72;;
45620;SDS011;31345;51.522;10.702;2023-08-24T12:36:41;7.35;;;3.75;;
45620;SDS011;31345;51.522;10.702;2023-08-24T12:39:14;5.18;;;3.28;;
45620;SDS011;31345;51.522;10.702;2023-08-24T12:41:43;5.85;;;3.33;;
45620;SDS011;31345;51.522;10.702;2023-08-24T12:44:16;7.47;;;3.70;;
45620;SDS011;31345;51.522;10.702;2023-08-24T12:46:48;8.25;;;3.80;;
45620;SDS011;31345;51.522;10.702;2023-08-24T12:49:21;7.80;;;3.50;;
45620;SDS011;31345;51.522;10.702;2023-08-24T12:51:54;8.00;;;3.85;;
45620;SDS011;31345;51.522;10.702;2023-08-24T12:54:26;7.45;;;3.90;;
45620;SDS011;31345;51.522;10.702;2023-08-24T12:57:00;6.97;;;3.22;;
45620;SDS011;31345;51.522;10.702;2023-08-24T12:59:28;8.82;;;3.80;;
45620;SDS011;31345;51.522;10.702;2023-08-24T13:01:55;6.53;;;4.18;;
45620;SDS011;31345;51.522;10.702;2023-08-24T13:04:28;8.85;;;3.58;;
45620;SDS011;31345;51.522;10.702;2023-08-24T13:06:56;4.82;;;2.92;;
45620;SDS011;31345;51.522;10.702;2023-08-24T13:09:28;6.82;;;3.60;;
45620;SDS011;31345;51.522;10.702;2023-08-24T13:12:02;7.07;;;3.15;;
45620;SDS011;31345;51.522;10.702;2023-08-24T13:14:35;6.00;;;3.13;;
45620;SDS011;31345;51.522;10.702;2023-08-24T13:17:08;6.60;;;3.70;;
45620;SDS011;31345;51.522;10.702;2023-08-24T13:19:40;5.68;;;3.40;;
45620;SDS011;31345;51.522;10.702;2023-08-24T13:22:13;6.93;;;3.38;;
45620;SDS011;31345;51.522;10.702;2023-08-24T13:24:46;5.00;;;3.03;;
45620;SDS011;31345;51.522;10.702;2023-08-24T13:27:20;9.07;;;3.88;;
45620;SDS011;31345;51.522;10.702;2023-08-24T13:29:52;5.47;;;3.45;;
45620;SDS011;31345;51.522;10.702;2023-08-24T13:32:27;4.95;;;3.63;;
45620;SDS011;31345;51.522;10.702;2023-08-24T13:35:00;9.60;;;3.72;;
45620;SDS011;31345;51.522;10.702;2023-08-24T13:37:33;6.03;;;3.40;;
45620;SDS011;31345;51.522;10.702;2023-08-24T13:40:06;7.70;;;3.58;;
45620;SDS011;31345;51.522;10.702;2023-08-24T13:42:37;4.50;;;3.13;;
45620;SDS011;31345;51.522;10.702;2023-08-24T13:45:10;6.13;;;3.42;;
45620;SDS011;31345;51.522;10.702;2023-08-24T13:47:37;5.78;;;3.63;;
45620;SDS011;31345;51.522;10.702;2023-08-24T13:50:10;6.50;;;3.45;;
45620;SDS011;31345;51.522;10.702;2023-08-24T13:52:42;8.73;;;3.30;;
45620;SDS011;31345;51.522;10.702;2023-08-24T13:55:15;6.50;;;3.47;;
45620;SDS011;31345;51.522;10.702;2023-08-24T13:57:49;5.40;;;3.22;;
45620;SDS011;31345;51.522;10.702;2023-08-24T14:00:21;7.07;;;3.13;;
45620;SDS011;31345;51.522;10.702;2023-08-24T14:02:54;10.18;;;3.53;;
45620;SDS011;31345;51.522;10.702;2023-08-24T14:05:27;5.72;;;3.50;;
45620;SDS011;31345;51.522;10.702;2023-08-24T14:07:59;8.68;;;3.58;;
45620;SDS011;31345;51.522;10.702;2023-08-24T14:10:33;6.55;;;3.30;;
45620;SDS011;31345;51.522;10.702;2023-08-24T14:13:07;6.78;;;3.40;;
45620;SDS011;31345;51.522;10.702;2023-08-24T14:15:35;6.03;;;3.72;;
45620;SDS011;31345;51.522;10.702;2023-08-24T14:18:07;5.97;;;3.70;;
45620;SDS011;31345;51.522;10.702;2023-08-24T14:20:42;8.45;;;4.18;;
45620;SDS011;31345;51.522;10.702;2023-08-24T14:23:15;7.88;;;3.63;;
45620;SDS011;31345;51.522;10.702;2023-08-24T14:25:47;7.00;;;3.55;;
45620;SDS011;31345;51.522;10.702;2023-08-24T14:28:22;9.45;;;3.33;;
45620;SDS011;31345;51.522;10.702;2023-08-24T14:30:55;5.85;;;3.25;;
45620;SDS011;31345;51.522;10.702;2023-08-24T14:33:28;5.28;;;3.10;;
45620;SDS011;31345;51.522;10.702;2023-08-24T14:36:01;7.68;;;3.60;;
45620;SDS011;31345;51.522;10.702;2023-08-24T14:38:33;8.38;;;3.83;;
45620;SDS011;31345;51.522;10.702;2023-08-24T14:41:06;7.07;;;3.58;;
45620;SDS011;31345;51.522;10.702;2023-08-24T14:43:41;5.20;;;3.17;;
45620;SDS011;31345;51.522;10.702;2023-08-24T14:46:14;8.52;;;3.45;;
45620;SDS011;31345;51.522;10.702;2023-08-24T14:48:46;4.93;;;3.20;;
45620;SDS011;31345;51.522;10.702;2023-08-24T14:51:19;11.10;;;3.28;;
45620;SDS011;31345;51.522;10.702;2023-08-24T14:53:51;6.45;;;3.35;;
45620;SDS011;31345;51.522;10.702;2023-08-24T14:56:24;6.43;;;3.30;;
45620;SDS011;31345;51.522;10.702;2023-08-24T14:58:58;6.68;;;3.28;;
45620;SDS011;31345;51.522;10.702;2023-08-24T15:01:30;5.55;;;3.05;;
45620;SDS011;31345;51.522;10.702;2023-08-24T15:04:03;7.10;;;3.50;;
45620;SDS011;31345;51.522;10.702;2023-08-24T15:06:36;9.50;;;3.33;;
45620;SDS011;31345;51.522;10.702;2023-08-24T15:09:08;7.85;;;3.03;;